createdAt,value
2023-04-16T00:01:24.463Z,9.30
2023-04-16T00:03:53.496Z,9.20
2023-04-16T00:06:23.589Z,9.30
2023-04-16T00:08:52.630Z,9.30
2023-04-16T00:14:01.806Z,9.30
2023-04-16T00:16:37.610Z,9.20
2023-04-16T00:19:04.785Z,9.20
2023-04-16T00:21:32.955Z,9.10
2023-04-16T00:24:03.799Z,9.10
2023-04-16T00:26:31.531Z,9.30
2023-04-16T00:29:06.271Z,9.30
2023-04-16T00:31:34.741Z,9.30
2023-04-16T00:34:07.144Z,9.20
2023-04-16T00:36:36.180Z,9.20
2023-04-16T00:39:06.606Z,9.20
2023-04-16T00:41:34.934Z,9.20
2023-04-16T00:44:01.761Z,9.20
2023-04-16T00:46:28.795Z,9.20
2023-04-16T00:48:57.415Z,9.30
2023-04-16T00:51:24.357Z,9.20
2023-04-16T00:53:51.350Z,9.30
2023-04-16T00:56:21.326Z,9.40
2023-04-16T00:58:49.072Z,9.30
2023-04-16T01:04:18.762Z,9.40
2023-04-16T01:06:49.864Z,9.30
2023-04-16T01:09:21.266Z,9.30
2023-04-16T01:11:48.152Z,9.30
2023-04-16T01:14:17.670Z,9.20
2023-04-16T01:16:48.647Z,9.10
2023-04-16T01:19:16.980Z,9.00
2023-04-16T01:21:47.073Z,9.00
2023-04-16T01:24:16.955Z,9.00
2023-04-16T01:26:45.407Z,9.00
2023-04-16T01:29:20.450Z,9.10
2023-04-16T01:31:49.846Z,9.10
2023-04-16T01:34:25.320Z,9.20
2023-04-16T01:36:52.334Z,9.20
2023-04-16T01:39:20.503Z,9.20
2023-04-16T01:41:49.952Z,9.30
2023-04-16T01:44:16.818Z,9.20
2023-04-16T01:46:46.308Z,9.20
2023-04-16T01:49:14.779Z,9.30
2023-04-16T01:51:44.501Z,9.30
2023-04-16T01:54:20.487Z,9.40
2023-04-16T01:56:47.542Z,9.40
2023-04-16T01:59:15.724Z,9.30
2023-04-16T02:01:43.419Z,9.20
2023-04-16T02:04:14.769Z,9.30
2023-04-16T02:06:43.003Z,9.20
2023-04-16T02:09:11.265Z,9.20
2023-04-16T02:11:40.728Z,9.10
2023-04-16T02:14:08.723Z,9.10
2023-04-16T02:16:36.662Z,9.10
2023-04-16T02:19:19.853Z,9.20
2023-04-16T02:21:48.724Z,9.20
2023-04-16T02:24:15.793Z,9.20
2023-04-16T02:26:45.178Z,9.20
2023-04-16T02:29:16.743Z,9.00
2023-04-16T02:31:50.589Z,9.00
2023-04-16T02:34:19.876Z,9.00
2023-04-16T02:36:48.854Z,9.10
2023-04-16T02:39:16.721Z,9.20
2023-04-16T02:41:45.785Z,9.20
2023-04-16T02:44:13.396Z,9.20
2023-04-16T02:46:41.340Z,9.30
2023-04-16T02:49:09.051Z,9.20
2023-04-16T02:51:36.246Z,9.20
2023-04-16T02:54:03.406Z,9.20
2023-04-16T02:56:34.430Z,9.20
2023-04-16T02:59:02.052Z,9.20
2023-04-16T03:01:29.865Z,9.20
2023-04-16T03:04:01.220Z,9.20
2023-04-16T03:06:29.207Z,9.20
2023-04-16T03:08:57.168Z,9.30
2023-04-16T03:11:24.433Z,9.40
2023-04-16T03:13:52.397Z,9.50
2023-04-16T03:16:20.142Z,9.40
2023-04-16T03:18:47.302Z,9.40
2023-04-16T03:21:14.818Z,9.30
2023-04-16T03:23:42.697Z,9.30
2023-04-16T03:26:14.146Z,9.40
2023-04-16T03:28:42.232Z,9.40
2023-04-16T03:31:12.766Z,9.40
2023-04-16T03:33:43.494Z,9.40
2023-04-16T03:36:14.406Z,9.40
2023-04-16T03:38:41.639Z,9.30
2023-04-16T03:41:14.317Z,9.40
2023-04-16T03:52:38.519Z,9.20
2023-04-16T03:59:42.491Z,9.40
2023-04-16T04:14:52.090Z,9.40
2023-04-16T04:18:22.276Z,9.40
2023-04-16T04:25:17.963Z,9.00
2023-04-16T04:28:18.358Z,8.90
2023-04-16T04:30:50.830Z,8.70
2023-04-16T04:34:50.367Z,8.70
2023-04-16T04:45:02.826Z,8.80
2023-04-16T04:47:32.982Z,8.70
2023-04-16T04:50:01.543Z,8.60
2023-04-16T04:59:07.520Z,8.60
2023-04-16T05:05:51.408Z,8.50
2023-04-16T05:08:24.338Z,8.50
2023-04-16T05:14:16.543Z,8.70
2023-04-16T05:16:47.178Z,8.60
2023-04-16T05:19:15.126Z,8.70
2023-04-16T05:21:46.736Z,8.80
2023-04-16T05:24:15.225Z,8.80
2023-04-16T05:26:43.996Z,8.90
2023-04-16T05:32:07.706Z,8.90
2023-04-16T05:34:35.615Z,8.90
2023-04-16T05:37:13.884Z,9.00
2023-04-16T05:39:43.192Z,9.10
2023-04-16T05:42:48.431Z,9.10
2023-04-16T05:45:19.062Z,9.00
2023-04-16T05:47:48.133Z,9.00
2023-04-16T05:50:15.581Z,9.10
2023-04-16T05:52:43.675Z,9.20
2023-04-16T05:58:22.084Z,9.30
2023-04-16T06:00:50.385Z,9.10
2023-04-16T06:03:19.895Z,9.20
2023-04-16T06:05:47.457Z,9.30
2023-04-16T06:08:14.912Z,9.30
2023-04-16T06:10:42.285Z,9.30
2023-04-16T06:13:10.458Z,9.30
2023-04-16T06:15:37.679Z,9.20
2023-04-16T06:18:05.662Z,9.00
2023-04-16T06:20:36.831Z,8.80
2023-04-16T06:23:06.645Z,8.80
2023-04-16T06:25:35.244Z,8.70
2023-04-16T06:28:02.984Z,8.70
2023-04-16T06:35:01.864Z,8.80
2023-04-16T06:40:39.521Z,8.70
2023-04-16T06:45:56.852Z,8.70
2023-04-16T06:48:26.837Z,8.70
2023-04-16T06:50:57.868Z,8.80
2023-04-16T06:53:26.064Z,8.70
2023-04-16T06:55:54.469Z,8.60
2023-04-16T06:58:23.712Z,8.80
2023-04-16T07:00:54.409Z,8.80
2023-04-16T07:08:58.555Z,8.80
2023-04-16T07:11:27.361Z,8.90
2023-04-16T07:13:59.285Z,9.00
2023-04-16T07:19:24.789Z,8.90
2023-04-16T07:21:57.008Z,8.80
2023-04-16T07:25:04.604Z,8.80
2023-04-16T07:27:31.925Z,8.80
2023-04-16T07:30:00.968Z,8.80
2023-04-16T07:35:17.800Z,8.90
2023-04-16T07:37:59.885Z,8.90
2023-04-16T07:40:44.433Z,8.90
2023-04-16T07:43:38.572Z,9.00
2023-04-16T08:06:30.588Z,9.20
2023-04-16T08:23:35.024Z,9.60
2023-04-16T08:26:05.854Z,9.50
2023-04-16T09:02:58.482Z,9.40
2023-04-16T09:05:38.579Z,9.40
2023-04-16T09:11:02.309Z,9.40
2023-04-16T09:13:50.535Z,9.40
2023-04-16T09:16:27.110Z,9.40
2023-04-16T09:24:38.752Z,9.50
2023-04-16T09:27:08.182Z,9.50
2023-04-16T09:44:06.722Z,9.80
2023-04-16T09:50:28.573Z,9.70
2023-04-16T10:15:23.685Z,9.70
2023-04-16T10:18:18.253Z,9.70
2023-04-16T10:20:51.762Z,9.80
2023-04-16T10:23:55.529Z,9.90
2023-04-16T10:26:25.645Z,9.80
2023-04-16T10:28:56.604Z,9.80
2023-04-16T10:31:28.977Z,9.70
2023-04-16T10:33:59.694Z,9.70
2023-04-16T10:36:29.124Z,9.60
2023-04-16T10:39:03.145Z,9.70
2023-04-16T10:41:36.998Z,9.60
2023-04-16T10:44:20.166Z,9.50
2023-04-16T10:46:54.530Z,9.70
2023-04-16T10:52:34.017Z,9.70
2023-04-16T10:56:15.312Z,9.70
2023-04-16T11:03:05.218Z,9.80
2023-04-16T11:08:32.518Z,9.80
2023-04-16T11:11:02.709Z,9.80
2023-04-16T11:13:30.463Z,9.90
2023-04-16T11:15:59.350Z,9.90
2023-04-16T11:18:30.901Z,9.80
2023-04-16T11:20:58.605Z,9.90
2023-04-16T11:26:27.298Z,9.90
2023-04-16T11:29:03.170Z,9.90
2023-04-16T11:31:31.509Z,9.80
2023-04-16T11:34:05.098Z,9.80
2023-04-16T12:03:57.980Z,10.50
2023-04-16T12:06:54.724Z,10.40
2023-04-16T12:09:55.974Z,10.40
2023-04-16T12:12:35.768Z,10.20
2023-04-16T12:36:24.602Z,10.50
2023-04-16T12:39:06.000Z,10.50
2023-04-16T12:41:38.473Z,10.50
2023-04-16T12:44:16.744Z,10.50
2023-04-16T12:46:46.453Z,10.60
2023-04-16T12:49:26.549Z,10.70
2023-04-16T12:52:04.200Z,10.60
2023-04-16T12:54:40.610Z,10.60
2023-04-16T12:57:20.234Z,10.70
2023-04-16T12:59:53.284Z,10.70
2023-04-16T13:02:23.500Z,10.60
2023-04-16T13:04:53.049Z,10.70
2023-04-16T13:07:23.397Z,10.70
2023-04-16T13:09:52.764Z,10.70
2023-04-16T13:12:23.867Z,10.70
2023-04-16T13:14:54.360Z,10.70
2023-04-16T13:17:31.564Z,10.70
2023-04-16T13:20:02.439Z,10.80
2023-04-16T13:22:35.035Z,10.80
2023-04-16T13:27:57.619Z,10.70
2023-04-16T13:33:26.051Z,10.90
2023-04-16T13:36:00.121Z,11.00
2023-04-16T13:38:56.988Z,11.00
2023-04-16T13:41:30.878Z,11.20
2023-04-16T13:44:14.039Z,11.20
2023-04-16T13:46:44.169Z,11.30
2023-04-16T13:49:11.685Z,11.40
2023-04-16T13:51:56.707Z,11.40
2023-04-16T13:58:04.548Z,11.30
2023-04-16T14:00:38.480Z,11.30
2023-04-16T14:03:07.768Z,11.40
2023-04-16T14:05:36.324Z,11.40
2023-04-16T14:08:12.144Z,11.50
2023-04-16T14:10:39.545Z,11.50
2023-04-16T14:13:11.164Z,11.50
2023-04-16T14:15:45.299Z,11.70
2023-04-16T14:18:14.310Z,11.50
2023-04-16T14:20:44.517Z,11.60
2023-04-16T14:31:28.270Z,11.60
2023-04-16T14:34:18.849Z,11.70
2023-04-16T14:36:46.967Z,11.80
2023-04-16T14:44:39.773Z,11.80
2023-04-16T14:47:13.976Z,11.90
2023-04-16T14:52:24.708Z,11.90
2023-04-16T14:57:56.825Z,11.90
2023-04-16T15:00:25.178Z,12.00
2023-04-16T15:02:56.652Z,11.90
2023-04-16T15:05:36.554Z,12.00
2023-04-16T15:08:06.266Z,12.00
2023-04-16T15:13:22.131Z,11.90
2023-04-16T15:16:41.218Z,11.90
2023-04-16T15:19:16.376Z,11.90
2023-04-16T15:21:52.602Z,11.80
2023-04-16T15:24:47.156Z,11.80
2023-04-16T15:27:17.029Z,11.80
2023-04-16T15:29:56.723Z,11.80
2023-04-16T15:35:17.275Z,11.80
2023-04-16T15:37:47.737Z,11.90
2023-04-16T15:40:23.520Z,11.90
2023-04-16T15:42:57.923Z,11.90
2023-04-16T15:45:29.671Z,11.90
2023-04-16T15:48:05.953Z,11.90
2023-04-16T15:50:34.269Z,11.90
2023-04-16T15:53:03.231Z,12.00
2023-04-16T15:55:31.834Z,11.90
2023-04-16T15:57:59.129Z,11.80
2023-04-16T16:00:28.115Z,11.90
2023-04-16T16:02:56.366Z,11.90
2023-04-16T16:05:23.776Z,12.00
2023-04-16T16:07:52.551Z,12.10
2023-04-16T16:10:20.384Z,12.10
2023-04-16T16:12:50.395Z,12.10
2023-04-16T16:15:18.934Z,12.00
2023-04-16T16:18:08.762Z,12.00
2023-04-16T16:21:39.993Z,12.00
2023-04-16T16:24:09.715Z,11.80
2023-04-16T16:29:36.212Z,11.70
2023-04-16T16:36:47.315Z,11.90
2023-04-16T16:39:25.532Z,11.90
2023-04-16T16:41:56.312Z,11.90
2023-04-16T16:44:37.910Z,12.00
2023-04-16T16:49:51.745Z,12.20
2023-04-16T16:52:25.556Z,12.20
2023-04-16T16:54:57.276Z,12.30
2023-04-16T16:57:26.204Z,12.20
2023-04-16T16:59:54.753Z,12.10
2023-04-16T17:05:08.753Z,11.90
2023-04-16T17:07:41.532Z,11.80
2023-04-16T17:10:23.352Z,11.90
2023-04-16T17:12:51.241Z,12.00
2023-04-16T17:15:21.670Z,11.90
2023-04-16T17:17:50.566Z,11.90
2023-04-16T17:22:59.624Z,12.00
2023-04-16T17:25:26.725Z,12.00
2023-04-16T17:27:54.793Z,12.00
2023-04-16T17:30:31.889Z,12.10
2023-04-16T17:32:59.295Z,12.10
2023-04-16T17:38:14.248Z,11.90
2023-04-16T17:40:41.912Z,11.80
2023-04-16T17:43:10.899Z,11.80
2023-04-16T17:45:38.850Z,11.70
2023-04-16T17:48:06.534Z,11.60
2023-04-16T17:50:33.894Z,11.60
2023-04-16T17:53:04.965Z,11.70
2023-04-16T17:55:35.124Z,11.70
2023-04-16T17:58:06.015Z,11.60
2023-04-16T18:00:34.753Z,11.50
2023-04-16T18:03:06.639Z,11.50
2023-04-16T18:05:35.049Z,11.60
2023-04-16T18:08:04.741Z,11.70
2023-04-16T18:10:37.204Z,11.60
2023-04-16T18:13:15.551Z,11.60
2023-04-16T18:15:43.933Z,11.60
2023-04-16T18:18:12.129Z,11.60
2023-04-16T18:20:44.100Z,11.60
2023-04-16T18:23:14.679Z,11.60
2023-04-16T18:25:44.938Z,11.70
2023-04-16T18:28:14.011Z,11.60
2023-04-16T18:30:42.989Z,11.50
2023-04-16T18:33:38.915Z,11.50
2023-04-16T18:36:03.424Z,11.50
2023-04-16T18:38:31.363Z,11.50
2023-04-16T18:40:58.712Z,11.60
2023-04-16T18:43:25.720Z,11.50
2023-04-16T18:45:53.072Z,11.50
2023-04-16T18:48:20.234Z,11.50
2023-04-16T18:50:48.484Z,11.50
2023-04-16T18:53:15.635Z,11.40
2023-04-16T18:55:43.529Z,11.40
2023-04-16T18:58:32.445Z,11.40
2023-04-16T19:01:01.153Z,11.30
2023-04-16T19:03:29.621Z,11.30
2023-04-16T19:05:56.870Z,11.20
2023-04-16T19:08:25.221Z,11.20
2023-04-16T19:10:53.436Z,11.20
2023-04-16T19:13:20.657Z,11.20
2023-04-16T19:15:48.794Z,11.20
2023-04-16T19:18:17.792Z,11.20
2023-04-16T19:20:45.891Z,11.20
2023-04-16T19:23:15.362Z,11.20
2023-04-16T19:31:38.405Z,11.30
2023-04-16T19:34:13.991Z,11.30
2023-04-16T19:43:08.014Z,11.20
2023-04-16T19:51:33.448Z,11.10
2023-04-16T20:00:02.486Z,11.30
2023-04-16T20:02:34.376Z,11.20
2023-04-16T20:05:02.810Z,11.20
2023-04-16T20:07:36.579Z,11.10
2023-04-16T20:10:08.702Z,11.10
2023-04-16T20:12:37.873Z,11.10
2023-04-16T20:15:06.906Z,11.20
2023-04-16T20:17:36.200Z,11.10
2023-04-16T20:20:07.536Z,11.20
2023-04-16T20:22:36.522Z,11.10
2023-04-16T20:25:06.044Z,11.10
2023-04-16T20:30:17.240Z,11.10
2023-04-16T20:32:56.150Z,11.10
2023-04-16T20:35:27.174Z,11.20
2023-04-16T20:38:01.496Z,11.20
2023-04-16T20:40:30.581Z,11.20
2023-04-16T20:43:00.187Z,11.30
2023-04-16T20:45:42.080Z,11.20
2023-04-16T20:48:20.090Z,11.20
2023-04-16T20:50:52.232Z,11.20
2023-04-16T20:58:51.238Z,11.20
2023-04-16T21:01:22.453Z,11.20
2023-04-16T21:06:44.733Z,11.10
2023-04-16T21:09:27.116Z,11.20
2023-04-16T21:14:59.097Z,11.10
2023-04-16T21:17:29.177Z,11.10
2023-04-16T21:20:02.375Z,11.10
2023-04-16T21:27:57.662Z,11.10
2023-04-16T21:30:32.469Z,11.20
2023-04-16T21:33:15.052Z,11.10
2023-04-16T21:35:49.433Z,11.10
2023-04-16T21:38:44.984Z,11.10
2023-04-16T21:41:14.997Z,11.10
2023-04-16T21:43:49.023Z,11.20
2023-04-16T21:46:21.606Z,11.20
2023-04-16T21:48:54.991Z,11.20
2023-04-16T21:51:29.585Z,11.30
2023-04-16T21:54:02.785Z,11.20
2023-04-16T21:56:33.198Z,11.10
2023-04-16T21:59:01.154Z,11.20
2023-04-16T22:01:30.643Z,11.10
2023-04-16T22:04:11.209Z,11.20
2023-04-16T22:06:44.467Z,11.00
2023-04-16T22:17:39.642Z,11.00
2023-04-16T22:20:15.300Z,10.90
2023-04-16T22:22:44.775Z,11.00
2023-04-16T22:25:22.051Z,11.00
2023-04-16T22:27:50.861Z,11.00
2023-04-16T22:30:19.652Z,11.00
2023-04-16T22:32:53.801Z,11.00
2023-04-16T22:38:41.396Z,11.00
2023-04-16T22:41:26.471Z,10.90
2023-04-16T22:43:58.120Z,10.90
2023-04-16T22:49:09.719Z,10.90
2023-04-16T22:51:43.315Z,10.90
2023-04-16T22:54:13.749Z,10.90
2023-04-16T22:56:42.177Z,11.00
2023-04-16T23:02:03.430Z,11.00
2023-04-16T23:07:19.172Z,11.00
2023-04-16T23:16:43.743Z,10.90
2023-04-16T23:19:46.271Z,10.80
2023-04-16T23:22:29.040Z,10.80
2023-04-16T23:27:45.736Z,10.60
2023-04-16T23:31:07.371Z,10.60
2023-04-16T23:33:43.301Z,10.70
2023-04-16T23:39:00.889Z,10.80
2023-04-16T23:41:28.633Z,10.80
2023-04-16T23:46:41.439Z,10.70
2023-04-16T23:49:11.627Z,10.80
2023-04-16T23:51:46.039Z,10.80
2023-04-16T23:54:23.571Z,10.80
2023-04-16T23:56:51.851Z,10.70
